Airfield :
LOGIN :

Register | Disclaimer

   EN    FR    IT 

 










Legend :    VFR   Marginal VFR   IFR   Intensive IFR   Very Intensive IFR
Visi :
Ceiling :
>= 8 km
>= 3000ft
5 to 8 km
1000 to 3000 ft
1500m to 5 km
500 to 1000 ft
800 to 1500m
200 to 500 ft
< 800m
< 200 ft
Symbols :   Thunderstorms  Fog  Heavy snow  Heavy precipitations  Wind > 20 kt
SIGMETs :     Misc.  Thunderstorms  Icing  Turbulence  Mountain Waves  Volcanic Ashes






- Airport Elevation : -13 ft
- IATA code : LEY


EHLE - Lelystad

CURRENT METAR :
  • 250555Z AUTO 31006KT 280V340 9999 NSC 13/12 Q1032 NOSIG

EXPIRED METARs :
  • 250525Z AUTO 31010KT 280V340 9999 FEW049 13/11 Q1032 NOSIG
  • 250455Z AUTO 31008KT 280V340 9999 OVC040 13/12 Q1032
  • 250425Z AUTO 31006KT 270V340 9999 NSC 13/11 Q1032
  • 250355Z AUTO 31008KT 280V340 9999 NSC 13/11 Q1032
  • 250325Z AUTO 32009KT 290V350 9999 OVC046 13/11 Q1031

TAF TAF EHLE
Valid from the 25 at 06:00 until the 26 at 12:00 UTC


250456Z 2506/2612 30008KT 9999 SCT040
BECMG 2506/2508 33010KT
BECMG 2518/2521 VRB03KT
PROB40
TEMPO 2601/2606 2000 BCFG
BECMG 2609/2612 30005KT



MET'MAP, your aeronautical weather chart ! - Copyright ORBIFLY December 2007 - Disclaimer

ORBIFLY MET'MAP TEAM :

Programming & Development : Alexandra Zaïnal
Concept & original design : Baudouin d'Aumeries
Assistance for programming : Marc-Olivier Méhu
Technical & hardware support : Manuel Goepfert

Contact : metmap@orbifly.com




SOURCES & CREDITS :

   NOAA